Mumbai Express — V2AH1 — position and weather

sailwx.info

Track history (hours):
 
Tides and Currents Weather Stations Pressure Air Temp Water Temp Dewpoint Dewpoint Depression Visibility Wind Speed Wind Dir Waves Ship Positions

Mumbai Express

Last reported at 2014-Oct-21 13:33 UTC. Time now 2014-Oct-22 03:21 UTC.
Position N 37°10' W 014°19'.

Length 260.7 m; beam 32.3 m; draft 12.5 m.

Type: Ship. MMSI: 304010914.

Date/timePositionNaut miles runAvg speedWind from/ knotsBaromVisibWave heightAir tempDewpointWater temp
2014-Oct-21 13:33N 37°10' W 014°19'1615.8
2014-Oct-21 12:33N 37°06' W 014°00'1615.8
2014-Oct-21 11:33N 37°03' W 013°41'1615.6
2014-Oct-21 10:32N 36°59' W 013°22'2215.6
2014-Oct-21 09:06N 36°54' W 012°54'2516.0
2014-Oct-21 07:33N 36°48' W 012°24'1615.6
2014-Oct-21 06:33N 36°45' W 012°05'1615.7
2014-Oct-21 05:32N 36°41' W 011°46'1515.4
2014-Oct-21 04:33N 36°38' W 011°27'1615.7
2014-Oct-21 03:32N 36°34' W 011°08'1615.9
2014-Oct-21 02:33N 36°31' W 010°49'1616.0
2014-Oct-21 01:33N 36°27' W 010°30'1616.1
2014-Oct-21 00:33N 36°24' W 010°10'1616.2
2014-Oct-20 23:33N 36°20' W 009°51'1816.3
2014-Oct-20 22:28N 36°16' W 009°29'1516.2
2014-Oct-20 21:33N 36°14' W 009°11'2216.1
2014-Oct-20 20:13N 36°11' W 008°44'2716.3
2014-Oct-20 18:33N 36°09' W 008°11'1616.2
2014-Oct-20 17:33N 36°06' W 007°51'1616.1
2014-Oct-20 16:33N 36°04' W 007°31'1816.0
2014-Oct-20 15:27N 36°03' W 007°10'1415.9
2014-Oct-20 14:33N 36°01' W 006°52'1615.7
2014-Oct-20 13:33N 35°59' W 006°33'5315.9
2014-Oct-20 10:13N 36°01' W 005°28'1015.1
2014-Oct-20 09:33N 36°04' W 005°16'17015.3
2014-Oct-19 22:27N 36°41' W 001°49'1716.4
2014-Oct-19 21:27N 36°53' W 001°34'1516.5
2014-Oct-19 20:33N 37°02' W 001°20'1716.5
2014-Oct-19 19:33N 37°13' W 001°05'1716.6
2014-Oct-19 18:33N 37°24' W 000°49'1716.9
2014-Oct-19 17:33N 37°35' W 000°33'1616.4
2014-Oct-19 16:33N 37°49' W 000°22'1616.1
2014-Oct-19 15:33N 38°02' W 000°10'1716.3
2014-Oct-19 14:32N 38°16' E 000°01'6913.9
2014-Oct-19 09:34N 39°24' W 000°15'4 3.9
2014-Oct-19 08:32N 39°26' W 000°19'0 0.0
2014-Oct-19 07:31N 39°26' W 000°19'0 0.0
2014-Oct-19 06:31N 39°26' W 000°19'0 0.0
2014-Oct-19 05:33N 39°26' W 000°19'0 0.0
2014-Oct-19 04:33N 39°26' W 000°19'0 0.0
2014-Oct-19 03:32N 39°26' W 000°19'0 0.0
2014-Oct-19 02:32N 39°26' W 000°19'0 0.0
2014-Oct-19 01:32N 39°26' W 000°19'0 0.0
2014-Oct-19 00:31N 39°26' W 000°19'0 0.0
2014-Oct-18 23:33N 39°26' W 000°19'0 0.4
2014-Oct-18 22:28N 39°26' W 000°20'0 0.0
2014-Oct-18 21:31N 39°26' W 000°20'0 0.0
2014-Oct-18 20:28N 39°26' W 000°20'0 0.0
2014-Oct-18 19:33N 39°26' W 000°20'0 0.0
2014-Oct-18 18:33N 39°26' W 000°20'0 0.0
2014-Oct-18 17:32N 39°26' W 000°20'0 0.0
2014-Oct-18 16:32N 39°26' W 000°20'0 0.0
2014-Oct-18 15:31N 39°26' W 000°20'0 0.0
2014-Oct-18 14:31N 39°26' W 000°20'0 0.0
2014-Oct-18 13:31N 39°26' W 000°20'0 0.0
2014-Oct-18 12:33N 39°26' W 000°20'0 0.0
2014-Oct-18 11:33N 39°26' W 000°20'0 0.0
2014-Oct-18 10:33N 39°26' W 000°20'6 6.0
2014-Oct-18 09:33N 39°24' W 000°12'1312.7
2014-Oct-18 08:32N 39°23' E 000°05'3214.3
2014-Oct-18 06:16N 39°19' E 000°46'1014.0
2014-Oct-18 05:33N 39°18' E 000°59'1414.3
2014-Oct-18 04:33N 39°16' E 001°17'1514.5
2014-Oct-18 03:33N 39°14' E 001°36'1514.6
2014-Oct-18 02:33N 39°11' E 001°54'1414.5
2014-Oct-18 01:33N 39°07' E 002°12'1414.4
2014-Oct-18 00:33N 39°04' E 002°30'1514.8
2014-Oct-17 23:33N 39°00' E 002°49'1514.7
2014-Oct-17 22:33N 38°57' E 003°07'1414.5
2014-Oct-17 21:33N 38°54' E 003°25'1413.8
2014-Oct-17 20:33N 38°50' E 003°43'1413.7
2014-Oct-17 19:33N 38°47' E 003°60'1413.8
2014-Oct-17 18:33N 38°44' E 004°17'1413.9
2014-Oct-17 17:34N 38°41' E 004°34'1514.2
2014-Oct-17 16:29N 38°37' E 004°53'1314.6
2014-Oct-17 15:33N 38°34' E 005°10'1715.5
2014-Oct-17 14:29N 38°30' E 005°31'1313.4
2014-Oct-17 13:32N 38°27' E 005°46'1414.2
2014-Oct-17 12:33N 38°24' E 006°04'1513.9
2014-Oct-17 11:29N 38°20' E 006°22'9714.0
2014-Oct-17 04:33N 37°58' E 008°23'12513.7
2014-Oct-16 19:25N 37°31' E 010°57'6914.2
2014-Oct-16 14:33N 37°01' E 012°16'1514.6
2014-Oct-16 13:33N 36°55' E 012°32'1514.7
2014-Oct-16 12:33N 36°49' E 012°49'1515.2
2014-Oct-16 11:33N 36°43' E 013°06'1616.0
2014-Oct-16 10:33N 36°36' E 013°24'1515.0
2014-Oct-16 09:34N 36°30' E 013°41'1515.1
2014-Oct-16 08:34N 36°24' E 013°58'1514.9
2014-Oct-16 07:34N 36°19' E 014°16'1514.7
2014-Oct-16 06:34N 36°15' E 014°33'1514.9
2014-Oct-16 05:33N 36°10' E 014°51'1614.8
2014-Oct-16 04:30N 36°06' E 015°10'5814.7
2014-Oct-16 00:33N 35°48' E 016°18'1614.3
2014-Oct-15 23:27N 35°44' E 016°37'12814.4
2014-Oct-15 14:33N 35°06' E 019°07'1414.5
2014-Oct-15 13:34N 35°01' E 019°24'1714.1
2014-Oct-15 12:22N 34°56' E 019°43'2614.5
2014-Oct-15 10:33N 34°49' E 020°13'  
Track history (hours):
 
Tides and Currents Weather Stations Pressure Air Temp Water Temp Dewpoint Dewpoint Depression Visibility Wind Speed Wind Dir Waves Ship Positions

Mumbai Express

Last reported at 2014-Oct-21 13:33 UTC. Time now 2014-Oct-22 03:21 UTC.
Position N 37°10' W 014°19'.

Length 260.7 m; beam 32.3 m; draft 12.5 m.

Type: Ship. MMSI: 304010914.

Date/timePositionNaut miles runAvg speedWind from/ knotsBaromVisibWave heightAir tempDewpointWater temp
2014-Oct-21 13:33N 37°10' W 014°19'1615.8
2014-Oct-21 12:33N 37°06' W 014°00'1615.8
2014-Oct-21 11:33N 37°03' W 013°41'1615.6
2014-Oct-21 10:32N 36°59' W 013°22'2215.6
2014-Oct-21 09:06N 36°54' W 012°54'2516.0
2014-Oct-21 07:33N 36°48' W 012°24'1615.6
2014-Oct-21 06:33N 36°45' W 012°05'1615.7
2014-Oct-21 05:32N 36°41' W 011°46'1515.4
2014-Oct-21 04:33N 36°38' W 011°27'1615.7
2014-Oct-21 03:32N 36°34' W 011°08'1615.9
2014-Oct-21 02:33N 36°31' W 010°49'1616.0
2014-Oct-21 01:33N 36°27' W 010°30'1616.1
2014-Oct-21 00:33N 36°24' W 010°10'1616.2
2014-Oct-20 23:33N 36°20' W 009°51'1816.3
2014-Oct-20 22:28N 36°16' W 009°29'1516.2
2014-Oct-20 21:33N 36°14' W 009°11'2216.1
2014-Oct-20 20:13N 36°11' W 008°44'2716.3
2014-Oct-20 18:33N 36°09' W 008°11'1616.2
2014-Oct-20 17:33N 36°06' W 007°51'1616.1
2014-Oct-20 16:33N 36°04' W 007°31'1816.0
2014-Oct-20 15:27N 36°03' W 007°10'1415.9
2014-Oct-20 14:33N 36°01' W 006°52'1615.7
2014-Oct-20 13:33N 35°59' W 006°33'5315.9
2014-Oct-20 10:13N 36°01' W 005°28'1015.1
2014-Oct-20 09:33N 36°04' W 005°16'17015.3
2014-Oct-19 22:27N 36°41' W 001°49'1716.4
2014-Oct-19 21:27N 36°53' W 001°34'1516.5
2014-Oct-19 20:33N 37°02' W 001°20'1716.5
2014-Oct-19 19:33N 37°13' W 001°05'1716.6
2014-Oct-19 18:33N 37°24' W 000°49'1716.9
2014-Oct-19 17:33N 37°35' W 000°33'1616.4
2014-Oct-19 16:33N 37°49' W 000°22'1616.1
2014-Oct-19 15:33N 38°02' W 000°10'1716.3
2014-Oct-19 14:32N 38°16' E 000°01'6913.9
2014-Oct-19 09:34N 39°24' W 000°15'4 3.9
2014-Oct-19 08:32N 39°26' W 000°19'0 0.0
2014-Oct-19 07:31N 39°26' W 000°19'0 0.0
2014-Oct-19 06:31N 39°26' W 000°19'0 0.0
2014-Oct-19 05:33N 39°26' W 000°19'0 0.0
2014-Oct-19 04:33N 39°26' W 000°19'0 0.0
2014-Oct-19 03:32N 39°26' W 000°19'0 0.0
2014-Oct-19 02:32N 39°26' W 000°19'0 0.0
2014-Oct-19 01:32N 39°26' W 000°19'0 0.0
2014-Oct-19 00:31N 39°26' W 000°19'0 0.0
2014-Oct-18 23:33N 39°26' W 000°19'0 0.4
2014-Oct-18 22:28N 39°26' W 000°20'0 0.0
2014-Oct-18 21:31N 39°26' W 000°20'0 0.0
2014-Oct-18 20:28N 39°26' W 000°20'0 0.0
2014-Oct-18 19:33N 39°26' W 000°20'0 0.0
2014-Oct-18 18:33N 39°26' W 000°20'0 0.0
2014-Oct-18 17:32N 39°26' W 000°20'0 0.0
2014-Oct-18 16:32N 39°26' W 000°20'0 0.0
2014-Oct-18 15:31N 39°26' W 000°20'0 0.0
2014-Oct-18 14:31N 39°26' W 000°20'0 0.0
2014-Oct-18 13:31N 39°26' W 000°20'0 0.0
2014-Oct-18 12:33N 39°26' W 000°20'0 0.0
2014-Oct-18 11:33N 39°26' W 000°20'0 0.0
2014-Oct-18 10:33N 39°26' W 000°20'6 6.0
2014-Oct-18 09:33N 39°24' W 000°12'1312.7
2014-Oct-18 08:32N 39°23' E 000°05'3214.3
2014-Oct-18 06:16N 39°19' E 000°46'1014.0
2014-Oct-18 05:33N 39°18' E 000°59'1414.3
2014-Oct-18 04:33N 39°16' E 001°17'1514.5
2014-Oct-18 03:33N 39°14' E 001°36'1514.6
2014-Oct-18 02:33N 39°11' E 001°54'1414.5
2014-Oct-18 01:33N 39°07' E 002°12'1414.4
2014-Oct-18 00:33N 39°04' E 002°30'1514.8
2014-Oct-17 23:33N 39°00' E 002°49'1514.7
2014-Oct-17 22:33N 38°57' E 003°07'1414.5
2014-Oct-17 21:33N 38°54' E 003°25'1413.8
2014-Oct-17 20:33N 38°50' E 003°43'1413.7
2014-Oct-17 19:33N 38°47' E 003°60'1413.8
2014-Oct-17 18:33N 38°44' E 004°17'1413.9
2014-Oct-17 17:34N 38°41' E 004°34'1514.2
2014-Oct-17 16:29N 38°37' E 004°53'1314.6
2014-Oct-17 15:33N 38°34' E 005°10'1715.5
2014-Oct-17 14:29N 38°30' E 005°31'1313.4
2014-Oct-17 13:32N 38°27' E 005°46'1414.2
2014-Oct-17 12:33N 38°24' E 006°04'1513.9
2014-Oct-17 11:29N 38°20' E 006°22'9714.0
2014-Oct-17 04:33N 37°58' E 008°23'12513.7
2014-Oct-16 19:25N 37°31' E 010°57'6914.2
2014-Oct-16 14:33N 37°01' E 012°16'1514.6
2014-Oct-16 13:33N 36°55' E 012°32'1514.7
2014-Oct-16 12:33N 36°49' E 012°49'1515.2
2014-Oct-16 11:33N 36°43' E 013°06'1616.0
2014-Oct-16 10:33N 36°36' E 013°24'1515.0
2014-Oct-16 09:34N 36°30' E 013°41'1515.1
2014-Oct-16 08:34N 36°24' E 013°58'1514.9
2014-Oct-16 07:34N 36°19' E 014°16'1514.7
2014-Oct-16 06:34N 36°15' E 014°33'1514.9
2014-Oct-16 05:33N 36°10' E 014°51'1614.8
2014-Oct-16 04:30N 36°06' E 015°10'5814.7
2014-Oct-16 00:33N 35°48' E 016°18'1614.3
2014-Oct-15 23:27N 35°44' E 016°37'12814.4
2014-Oct-15 14:33N 35°06' E 019°07'1414.5
2014-Oct-15 13:34N 35°01' E 019°24'1714.1
2014-Oct-15 12:22N 34°56' E 019°43'2614.5
2014-Oct-15 10:33N 34°49' E 020°13'  

Dump ship's entire track history